Time;durP1;ratioP1;P1;durP2;ratioP2;P2;SDS_P1;SDS_P2;PMS_P1;PMS_P2;Temp;Humidity;BMP_temperature;BMP_pressure;BME280_temperature;BME280_humidity;BME280_pressure;Samples;Min_cycle;Max_cycle;Signal;HPM_P1;HPM_P2
2022/06/10 00:01:04;;;;;;;4.93;4.53;;;;;;;-143.84;92.40;45062.41;5031369;28;20439;-70
2022/06/10 00:03:32;;;;;;;5.30;4.80;;;;;;;-143.84;92.68;45089.06;5031561;28;20439;-70
2022/06/10 00:06:03;;;;;;;4.83;4.43;;;;;;;-143.84;92.50;45075.72;5031604;28;20496;-70
2022/06/10 00:08:33;;;;;;;5.17;4.67;;;;;;;-143.84;93.05;45085.25;5031546;28;20537;-70
2022/06/10 00:11:01;;;;;;;5.60;5.30;;;;;;;-143.84;92.94;45075.72;5031626;28;20452;-71
2022/06/10 00:13:31;;;;;;;6.70;5.67;;;;;;;-143.84;92.91;45068.13;5030940;28;20451;-70
2022/06/10 00:16:01;;;;;;;5.07;4.60;;;;;;;-143.84;92.77;45070.00;5031591;28;20474;-70
2022/06/10 00:18:30;;;;;;;4.90;4.60;;;;;;;-143.84;92.59;45070.00;5031067;28;20504;-70
2022/06/10 00:20:58;;;;;;;5.70;5.17;;;;;;;-143.84;92.40;45070.00;5031342;28;20446;-70
2022/06/10 00:23:25;;;;;;;5.73;5.03;;;;;;;-143.84;92.51;45073.81;5031144;28;20446;-70
2022/06/10 00:25:52;;;;;;;5.40;5.00;;;;;;;-143.84;92.71;45075.72;5030850;28;20540;-71
2022/06/10 00:28:20;;;;;;;5.20;4.87;;;;;;;-143.84;92.91;45052.88;5031166;28;20451;-70
2022/06/10 00:30:47;;;;;;;10.03;4.67;;;;;;;-143.84;93.16;45070.00;5031559;28;20438;-70
2022/06/10 00:33:16;;;;;;;5.30;4.90;;;;;;;-143.84;93.23;45071.91;5031026;28;21184;-71
2022/06/10 00:35:43;;;;;;;6.30;5.70;;;;;;;-143.84;93.36;45087.16;5031262;28;20447;-70
2022/06/10 00:38:11;;;;;;;6.83;5.40;;;;;;;-143.84;93.29;45064.31;5031178;28;20453;-71
2022/06/10 00:40:42;;;;;;;5.43;5.13;;;;;;;-143.84;93.54;45056.69;5030973;28;20435;-71
2022/06/10 00:43:15;;;;;;;6.57;6.03;;;;;;;-143.84;93.45;45062.41;5031128;28;20446;-70
2022/06/10 00:46:06;;;;;;;6.90;6.30;;;;;;;-143.84;93.57;45073.81;5030849;28;20435;-71
2022/06/10 00:48:39;;;;;;;6.50;5.60;;;;;;;-143.84;93.39;45098.56;5030800;28;20439;-71
2022/06/10 00:51:19;;;;;;;7.40;5.73;;;;;;;-143.84;93.41;45098.56;5030627;28;20500;-71
2022/06/10 00:53:52;;;;;;;10.33;5.57;;;;;;;-143.84;93.61;45060.50;5030431;28;20438;-71
2022/06/10 00:56:23;;;;;;;13.63;5.47;;;;;;;-143.84;93.37;45045.25;5030674;28;20486;-71
2022/06/10 00:58:56;;;;;;;7.27;5.03;;;;;;;-143.84;93.37;45062.41;5030382;28;20447;-71
2022/06/10 01:01:25;;;;;;;5.20;4.70;;;;;;;-143.84;93.51;45064.31;5030653;28;20933;-70
2022/06/10 01:03:55;;;;;;;5.30;4.80;;;;;;;-143.84;93.67;45087.16;5030501;28;20454;-71
2022/06/10 01:06:23;;;;;;;8.20;5.33;;;;;;;-143.84;93.82;45106.19;5030397;28;20442;-70
2022/06/10 01:08:51;;;;;;;5.93;5.20;;;;;;;-143.84;93.55;45079.53;5030782;28;20500;-70
2022/06/10 01:11:41;;;;;;;6.60;5.27;;;;;;;-143.84;93.46;45075.72;5030341;28;20434;-70
2022/06/10 01:14:23;;;;;;;6.63;5.00;;;;;;;-143.84;93.31;45092.88;5030378;28;20451;-70
2022/06/10 01:16:57;;;;;;;5.70;5.23;;;;;;;-143.84;93.31;45085.25;5030105;28;20497;-71
2022/06/10 01:19:50;;;;;;;7.57;5.67;;;;;;;-143.84;93.82;45056.69;5030367;28;20489;-71
2022/06/10 01:22:38;;;;;;;6.90;5.43;;;;;;;-143.84;93.73;45070.00;5030238;28;20453;-71
2022/06/10 01:25:53;;;;;;;5.60;5.17;;;;;;;-143.84;93.92;45071.91;5029183;28;20485;-71
2022/06/10 01:28:29;;;;;;;7.40;6.07;;;;;;;-143.84;94.01;45087.16;5008237;28;20980;-71
2022/06/10 01:31:10;;;;;;;5.73;5.33;;;;;;;-143.84;94.08;45092.88;5029871;28;20504;-71
2022/06/10 01:34:03;;;;;;;6.37;5.73;;;;;;;-143.84;94.30;45050.97;5029840;28;20850;-70
2022/06/10 01:36:45;;;;;;;10.37;6.00;;;;;;;-143.84;94.29;45070.00;5030045;28;20544;-71
2022/06/10 01:39:21;;;;;;;8.83;5.47;;;;;;;-143.84;94.31;45113.81;5029872;28;20936;-70
2022/06/10 01:41:54;;;;;;;5.40;5.00;;;;;;;-143.84;94.22;45068.13;5029659;28;20504;-71
2022/06/10 01:44:34;;;;;;;7.93;5.50;;;;;;;-143.84;94.03;45050.97;5029914;28;21219;-71
2022/06/10 01:47:07;;;;;;;7.40;6.70;;;;;;;-143.84;94.10;45037.66;5029576;28;20508;-71
2022/06/10 01:49:42;;;;;;;6.30;5.20;;;;;;;-143.84;93.82;45073.81;5029529;28;20573;-70
2022/06/10 01:52:18;;;;;;;6.80;6.20;;;;;;;-143.84;93.49;45119.53;5029729;28;20433;-70
2022/06/10 01:54:53;;;;;;;10.20;5.90;;;;;;;-143.84;93.71;45090.97;5029604;28;20513;-70
2022/06/10 01:57:27;;;;;;;6.77;6.03;;;;;;;-143.84;93.58;45079.53;5029355;28;20516;-71
2022/06/10 02:00:00;;;;;;;6.23;5.73;;;;;;;-143.84;93.59;45030.03;5029244;28;20511;-71
2022/06/10 02:02:33;;;;;;;5.70;5.17;;;;;;;-143.84;93.63;45075.72;5029297;28;20435;-71
2022/06/10 02:05:06;;;;;;;9.10;5.60;;;;;;;-143.84;93.68;45068.13;5029368;28;20439;-71
2022/06/10 02:07:36;;;;;;;5.80;5.10;;;;;;;-143.84;93.54;45068.13;5029331;28;20451;-71
2022/06/10 02:10:13;;;;;;;5.90;4.90;;;;;;;-143.84;93.54;45081.44;5029436;28;20505;-71
2022/06/10 02:12:45;;;;;;;6.57;6.07;;;;;;;-143.84;93.45;45075.72;5029511;28;20655;-71
2022/06/10 02:15:19;;;;;;;8.33;6.30;;;;;;;-143.84;93.71;45075.72;5029366;28;20438;-71
2022/06/10 02:17:53;;;;;;;6.57;6.00;;;;;;;-143.84;93.74;45064.31;5029371;28;20482;-71
2022/06/10 02:20:26;;;;;;;10.37;5.87;;;;;;;-143.84;93.65;45085.25;5028950;28;20656;-70
2022/06/10 02:22:57;;;;;;;7.07;6.40;;;;;;;-143.84;93.59;45052.88;5029102;28;20446;-71
2022/06/10 02:25:29;;;;;;;6.57;5.97;;;;;;;-143.84;93.96;45083.34;5028903;28;20890;-71
2022/06/10 02:28:01;;;;;;;6.57;6.10;;;;;;;-143.84;93.60;45052.88;5029447;28;20454;-71
2022/06/10 02:30:35;;;;;;;7.43;5.90;;;;;;;-143.84;93.76;45068.13;5029183;28;20940;-70
2022/06/10 02:33:04;;;;;;;7.70;6.70;;;;;;;-143.84;93.57;45058.59;5028901;28;20449;-71
2022/06/10 02:35:43;;;;;;;7.90;6.40;;;;;;;-143.84;93.79;45062.41;5028696;28;20450;-71
2022/06/10 02:38:18;;;;;;;6.13;5.53;;;;;;;-143.84;93.69;45035.75;5028287;28;20486;-70
2022/06/10 02:40:51;;;;;;;6.57;5.47;;;;;;;-143.84;93.85;45066.22;5028541;28;20443;-71
2022/06/10 02:43:29;;;;;;;10.70;6.33;;;;;;;-143.84;93.88;45087.16;5029361;28;20882;-71
2022/06/10 02:46:01;;;;;;;6.40;5.90;;;;;;;-143.84;94.08;45081.44;5028672;28;20431;-71
2022/06/10 02:48:35;;;;;;;6.77;6.20;;;;;;;-143.84;94.02;45068.13;5028574;28;20504;-71
2022/06/10 02:51:03;;;;;;;8.60;6.20;;;;;;;-143.84;94.05;45056.69;5028748;28;20446;-71
2022/06/10 02:53:30;;;;;;;8.30;6.40;;;;;;;-143.84;94.19;45064.31;5029013;28;20443;-71
2022/06/10 02:55:57;;;;;;;11.30;6.53;;;;;;;-143.84;94.38;45083.34;5028849;28;20471;-71
2022/06/10 03:01:22;;;;;;;6.30;5.73;;;;;;;-143.84;94.58;45071.91;5028911;28;20437;-71
2022/06/10 03:04:04;;;;;;;6.67;6.13;;;;;;;-143.84;94.35;45066.22;5029292;28;20441;-71
2022/06/10 03:06:40;;;;;;;8.43;6.90;;;;;;;-143.84;94.22;45075.72;5028783;28;20992;-71
2022/06/10 03:09:13;;;;;;;7.27;6.57;;;;;;;-143.84;94.42;45062.41;5028489;28;20525;-70
2022/06/10 03:11:46;;;;;;;8.90;6.30;;;;;;;-143.84;94.04;45068.13;5026491;28;20519;-72
2022/06/10 03:14:26;;;;;;;6.77;6.17;;;;;;;-143.84;94.19;45071.91;5028851;28;20446;-73
2022/06/10 03:17:05;;;;;;;6.80;6.30;;;;;;;-143.84;94.06;45081.44;5028783;28;20504;-72
2022/06/10 03:19:43;;;;;;;7.83;6.07;;;;;;;-143.84;94.04;45087.16;5029128;28;20435;-72
2022/06/10 03:22:19;;;;;;;14.63;6.17;;;;;;;-143.84;94.08;45090.97;5028307;28;20457;-71
2022/06/10 03:24:57;;;;;;;7.00;6.40;;;;;;;-143.84;93.63;45058.59;5036135;28;20481;-71
2022/06/10 03:27:31;;;;;;;6.07;5.57;;;;;;;-143.84;93.39;45081.44;5048793;28;20522;-71
2022/06/10 03:30:07;;;;;;;7.77;6.13;;;;;;;-143.84;93.31;45081.44;5048350;28;20445;-71
2022/06/10 03:32:41;;;;;;;7.17;6.50;;;;;;;-143.84;93.54;45030.03;5048259;28;20429;-71
2022/06/10 03:35:12;;;;;;;6.23;5.73;;;;;;;-143.84;93.40;45039.53;5048617;28;20446;-71
2022/06/10 03:37:41;;;;;;;6.67;6.07;;;;;;;-143.84;93.25;45115.72;5048403;28;20485;-71
2022/06/10 03:40:16;;;;;;;7.70;5.90;;;;;;;-143.84;92.84;45075.72;5048356;28;20438;-71
2022/06/10 03:42:48;;;;;;;8.50;6.43;;;;;;;-143.84;93.47;45070.00;5048212;28;20449;-71
2022/06/10 03:45:18;;;;;;;5.57;5.17;;;;;;;-143.84;93.70;45068.13;5048056;28;20446;-71
2022/06/10 03:47:46;;;;;;;6.20;5.60;;;;;;;-143.84;94.02;45052.88;5047200;28;20438;-71
2022/06/10 03:50:17;;;;;;;6.10;5.60;;;;;;;-143.84;92.65;45077.63;5050189;28;20449;-71
2022/06/10 03:52:46;;;;;;;6.37;5.43;;;;;;;-143.84;91.75;45054.78;5050291;28;20446;-71
2022/06/10 03:55:17;;;;;;;4.73;4.40;;;;;;;-143.84;91.67;45050.97;5050491;28;20446;-71
2022/06/10 03:57:45;;;;;;;5.73;4.40;;;;;;;-143.84;91.24;45066.22;5050598;28;20531;-71
2022/06/10 04:00:16;;;;;;;5.10;4.80;;;;;;;-143.84;89.90;45037.66;5050005;28;20955;-71
2022/06/10 04:02:43;;;;;;;4.67;4.30;;;;;;;-143.84;87.50;45075.72;5050995;28;20507;-71
2022/06/10 04:05:11;;;;;;;5.70;4.10;;;;;;;-143.84;87.01;45056.69;5051332;28;20445;-71
2022/06/10 04:07:41;;;;;;;7.27;4.40;;;;;;;-143.84;86.47;45064.31;5051789;28;20454;-71
2022/06/10 04:10:11;;;;;;;4.20;3.90;;;;;;;-143.84;85.27;45060.50;5051555;28;20958;-71
2022/06/10 04:12:39;;;;;;;3.90;3.60;;;;;;;-143.84;84.55;45037.66;5051645;28;20447;-71
2022/06/10 04:15:08;;;;;;;3.73;3.47;;;;;;;-143.84;84.23;45071.91;5051451;28;20492;-71
2022/06/10 04:17:35;;;;;;;5.93;4.23;;;;;;;-143.84;84.70;45062.41;5051266;28;20470;-71
2022/06/10 04:20:03;;;;;;;4.23;3.60;;;;;;;-143.84;84.21;45064.31;5051331;28;20503;-71
2022/06/10 04:22:31;;;;;;;4.80;3.97;;;;;;;-143.84;84.90;45056.69;5051235;28;20456;-71
2022/06/10 04:24:59;;;;;;;9.80;4.50;;;;;;;-143.84;85.29;45071.91;5051280;28;20500;-71
2022/06/10 04:27:26;;;;;;;3.50;3.30;;;;;;;-143.84;85.47;45066.22;5051312;28;20465;-71
2022/06/10 04:29:53;;;;;;;7.10;4.37;;;;;;;-143.84;85.97;45047.16;5051325;28;20449;-71
2022/06/10 04:32:20;;;;;;;6.37;4.00;;;;;;;-143.84;86.29;45070.00;5051132;28;20441;-71
2022/06/10 04:34:47;;;;;;;4.63;4.33;;;;;;;-143.84;86.94;45081.44;5051111;28;20461;-71
2022/06/10 04:37:15;;;;;;;5.00;4.50;;;;;;;-143.84;86.83;45054.78;5051085;28;20511;-71
2022/06/10 04:39:42;;;;;;;4.47;4.07;;;;;;;-143.84;86.03;45070.00;5051235;28;20495;-71
2022/06/10 04:42:10;;;;;;;9.03;3.60;;;;;;;-143.84;85.33;45050.97;5050926;28;20503;-71
2022/06/10 04:44:37;;;;;;;8.50;3.30;;;;;;;-143.84;84.26;45056.69;5050667;28;21202;-71
2022/06/10 04:47:07;;;;;;;8.03;3.90;;;;;;;-143.84;82.79;45058.59;5050832;28;20976;-71
2022/06/10 04:49:35;;;;;;;3.63;3.40;;;;;;;-143.84;82.36;45075.72;5050577;28;20536;-71
2022/06/10 04:52:02;;;;;;;3.17;2.97;;;;;;;-143.84;82.33;45064.31;5050662;28;20543;-71
2022/06/10 04:54:29;;;;;;;6.03;3.30;;;;;;;-143.84;80.82;45075.72;5050705;28;20434;-71
2022/06/10 04:56:57;;;;;;;4.50;3.60;;;;;;;-143.84;80.76;45049.06;5050889;28;20440;-71
2022/06/10 04:59:25;;;;;;;4.57;3.13;;;;;;;-143.84;80.79;45039.53;5050611;28;20481;-71
2022/06/10 05:01:52;;;;;;;4.13;3.70;;;;;;;-143.84;80.75;45033.84;5050523;28;20454;-71
2022/06/10 05:04:19;;;;;;;4.00;3.43;;;;;;;-143.84;80.46;45030.03;5050517;28;20442;-71
2022/06/10 05:06:47;;;;;;;3.83;3.60;;;;;;;-143.84;80.34;45045.25;5050228;28;20442;-71
2022/06/10 05:09:14;;;;;;;3.63;3.33;;;;;;;-143.84;80.74;45039.53;5050231;28;20440;-71
2022/06/10 05:11:41;;;;;;;6.60;3.70;;;;;;;-143.84;79.82;45041.44;5049552;28;20472;-71
2022/06/10 05:14:10;;;;;;;4.67;3.40;;;;;;;-143.84;79.82;45047.16;5050468;28;20430;-71
2022/06/10 05:16:39;;;;;;;3.27;3.07;;;;;;;-143.84;79.90;45056.69;5050336;28;20965;-71
2022/06/10 05:19:06;;;;;;;5.40;3.50;;;;;;;-143.84;80.41;45045.25;5050546;28;20916;-71
2022/06/10 05:21:33;;;;;;;3.87;3.30;;;;;;;-143.84;80.20;45045.25;5050115;28;20444;-71
2022/06/10 05:24:00;;;;;;;3.33;2.90;;;;;;;-143.84;79.22;45039.53;5050284;28;20457;-71
2022/06/10 05:26:29;;;;;;;3.50;3.10;;;;;;;-143.84;79.14;45047.16;5049847;28;21060;-71
2022/06/10 05:28:56;;;;;;;6.03;3.20;;;;;;;-143.84;78.36;45071.91;5050134;28;20449;-71
2022/06/10 05:31:24;;;;;;;5.10;3.00;;;;;;;-143.84;78.64;45070.00;5050229;28;20433;-71
2022/06/10 05:36:37;;;;;;;3.97;3.07;;;;;;;-143.84;77.36;45081.44;5050034;28;20425;-71
2022/06/10 05:39:05;;;;;;;3.07;2.70;;;;;;;-143.84;77.64;45052.88;5050380;28;20485;-71
2022/06/10 05:44:17;;;;;;;2.97;2.73;;;;;;;-143.84;76.55;45028.13;5049855;28;20429;-71
2022/06/10 05:46:44;;;;;;;8.30;2.47;;;;;;;-143.84;76.01;45079.53;5049960;28;20459;-71
2022/06/10 05:49:13;;;;;;;2.80;2.60;;;;;;;-143.84;75.46;45026.22;5049786;28;20446;-71
2022/06/10 05:51:41;;;;;;;4.20;3.13;;;;;;;-143.84;76.71;45049.06;5049673;28;20445;-71
2022/06/10 05:54:08;;;;;;;3.00;2.80;;;;;;;-143.84;76.82;45037.66;5049550;28;20967;-71
2022/06/10 05:56:35;;;;;;;8.03;3.13;;;;;;;-143.84;77.39;45075.72;5049643;28;20440;-71
2022/06/10 05:59:02;;;;;;;8.90;3.60;;;;;;;-143.84;78.41;45068.13;5049533;28;20477;-71
2022/06/10 06:01:30;;;;;;;4.43;3.07;;;;;;;-143.84;79.28;45062.41;5049630;28;20460;-71
2022/06/10 06:03:57;;;;;;;3.47;3.13;;;;;;;-143.84;80.26;45028.13;5049285;28;20446;-71
2022/06/10 06:06:25;;;;;;;3.07;2.87;;;;;;;-143.84;80.50;45054.78;5049484;28;20438;-71
2022/06/10 06:08:53;;;;;;;3.97;3.23;;;;;;;-143.84;80.06;45043.34;5049776;28;21010;-71
2022/06/10 06:11:20;;;;;;;4.00;3.03;;;;;;;-143.84;80.04;45043.34;5049225;28;20500;-71
2022/06/10 06:13:47;;;;;;;4.50;3.20;;;;;;;-143.84;80.59;45066.22;5049324;28;20441;-71
2022/06/10 06:16:16;;;;;;;10.63;3.33;;;;;;;-143.84;79.79;45052.88;5049330;28;20511;-71
2022/06/10 06:18:43;;;;;;;3.20;2.90;;;;;;;-143.84;79.56;45045.25;5049201;28;20944;-71
2022/06/10 06:21:11;;;;;;;6.43;3.90;;;;;;;-143.84;80.39;45052.88;5049368;28;20495;-71
2022/06/10 06:23:41;;;;;;;4.10;3.47;;;;;;;-143.84;79.59;45024.31;5049243;28;20527;-71
2022/06/10 06:26:14;;;;;;;2.93;2.73;;;;;;;-143.84;79.07;45037.66;5049176;28;21054;-71
2022/06/10 06:28:41;;;;;;;5.50;2.90;;;;;;;-143.84;77.88;45089.06;5049031;28;20441;-71
2022/06/10 06:31:08;;;;;;;7.40;3.07;;;;;;;-143.84;78.76;45056.69;5049010;28;20433;-71
2022/06/10 06:33:36;;;;;;;3.67;3.20;;;;;;;-143.84;78.77;45058.59;5048975;28;20437;-71
2022/06/10 06:36:05;;;;;;;6.37;3.80;;;;;;;-143.84;78.74;45052.88;5048979;28;20449;-71
2022/06/10 06:38:32;;;;;;;4.20;3.80;;;;;;;-143.84;77.39;45039.53;5049146;28;20539;-71
2022/06/10 06:41:01;;;;;;;3.63;3.43;;;;;;;-143.84;77.49;45083.34;5048795;28;20954;-71
2022/06/10 06:43:28;;;;;;;3.13;2.83;;;;;;;-143.84;75.21;45045.25;5049131;28;20496;-71
2022/06/10 06:45:55;;;;;;;4.40;2.97;;;;;;;-143.84;80.50;45050.97;5049000;28;20468;-71
2022/06/10 06:48:22;;;;;;;3.33;3.03;;;;;;;-143.84;80.10;45066.22;5048742;28;20507;-71
2022/06/10 06:50:51;;;;;;;8.90;3.50;;;;;;;-143.84;79.45;45043.34;5049188;28;20426;-71
2022/06/10 06:53:18;;;;;;;2.43;2.23;;;;;;;-143.84;79.19;45041.44;5048580;28;20445;-71
2022/06/10 06:55:46;;;;;;;2.77;2.67;;;;;;;-143.84;79.91;45073.81;5048360;28;20448;-71
2022/06/10 06:58:17;;;;;;;6.83;2.80;;;;;;;-143.84;80.28;45068.13;5048621;28;20481;-71
2022/06/10 07:00:44;;;;;;;2.90;2.70;;;;;;;-143.84;78.17;45071.91;5048513;28;20441;-72
2022/06/10 07:03:12;;;;;;;2.60;2.40;;;;;;;-143.84;78.37;45033.84;5048271;28;20438;-73
2022/06/10 07:05:39;;;;;;;9.20;3.67;;;;;;;-143.84;78.75;45035.75;5048535;28;20442;-73
2022/06/10 07:08:07;;;;;;;3.10;2.90;;;;;;;-143.84;78.94;45062.41;5049383;28;20813;-73
2022/06/10 07:10:34;;;;;;;4.80;3.00;;;;;;;-143.84;78.51;45052.88;5049207;28;21361;-73
2022/06/10 07:13:01;;;;;;;2.90;2.70;;;;;;;-143.84;79.23;45062.41;5049630;28;20495;-73
2022/06/10 07:15:30;;;;;;;4.23;2.90;;;;;;;-143.84;80.17;45024.31;5049509;28;20941;-73
2022/06/10 07:17:58;;;;;;;8.37;3.23;;;;;;;-143.84;80.90;45047.16;5049289;28;20499;-73
2022/06/10 07:20:29;;;;;;;4.03;3.57;;;;;;;-143.84;81.10;45096.66;5049218;28;20442;-73
2022/06/10 07:22:57;;;;;;;3.40;3.20;;;;;;;-143.84;81.01;45050.97;5049123;28;20512;-73
2022/06/10 07:25:24;;;;;;;3.50;3.23;;;;;;;-143.84;81.13;45070.00;5052359;28;20488;-73
2022/06/10 07:27:55;;;;;;;5.77;2.87;;;;;;;-143.84;81.23;45064.31;5053080;28;20829;-73
2022/06/10 07:30:24;;;;;;;5.33;2.80;;;;;;;-143.84;81.25;45062.41;5052781;28;20449;-72
2022/06/10 07:32:53;;;;;;;6.77;3.10;;;;;;;-143.84;80.84;45049.06;5052594;28;20436;-73
2022/06/10 07:35:20;;;;;;;3.67;3.23;;;;;;;-143.84;81.44;45049.06;5052859;28;20450;-73
2022/06/10 07:37:49;;;;;;;4.30;3.10;;;;;;;-143.84;81.67;45049.06;5052085;28;20448;-73
2022/06/10 07:42:59;;;;;;;3.40;3.20;;;;;;;-143.84;81.20;45037.66;5050855;28;20954;-73
2022/06/10 07:45:28;;;;;;;3.10;2.80;;;;;;;-143.84;80.45;45060.50;5051226;28;20438;-73
2022/06/10 07:47:57;;;;;;;3.23;2.77;;;;;;;-143.84;80.08;45049.06;5051681;28;20474;-72
2022/06/10 07:50:24;;;;;;;3.17;2.90;;;;;;;-143.84;80.40;45064.31;5051774;28;20519;-72
2022/06/10 07:52:51;;;;;;;4.13;2.77;;;;;;;-143.84;80.85;45087.16;5051690;28;20457;-73
2022/06/10 07:55:19;;;;;;;4.37;3.03;;;;;;;-143.84;79.94;45079.53;5052051;28;20449;-73
2022/06/10 07:57:47;;;;;;;4.70;2.87;;;;;;;-143.84;79.96;45049.06;5051638;28;20503;-72
2022/06/10 08:00:16;;;;;;;3.47;3.00;;;;;;;-143.84;79.54;45047.16;5051643;28;20485;-72
2022/06/10 08:02:43;;;;;;;3.00;2.50;;;;;;;-143.84;78.29;45052.88;5052423;28;20450;-72
2022/06/10 08:05:13;;;;;;;3.43;2.70;;;;;;;-143.84;77.34;45037.66;5051781;28;20446;-72
2022/06/10 08:07:41;;;;;;;5.53;3.27;;;;;;;-143.84;77.44;45071.91;5051793;28;20853;-72
2022/06/10 08:10:17;;;;;;;2.73;2.40;;;;;;;-143.84;77.40;45033.84;5051370;28;20458;-72
2022/06/10 08:12:44;;;;;;;4.63;2.70;;;;;;;-143.84;77.56;45054.78;5051532;28;20900;-72
2022/06/10 08:15:12;;;;;;;3.23;3.03;;;;;;;-143.84;77.72;45039.53;5051707;28;20433;-73
2022/06/10 08:17:39;;;;;;;3.77;2.80;;;;;;;-143.84;77.23;45071.91;5052252;28;20430;-73
2022/06/10 08:20:08;;;;;;;3.13;2.50;;;;;;;-143.84;77.41;45026.22;5023172;28;20483;-73
2022/06/10 08:22:35;;;;;;;6.37;3.00;;;;;;;-143.84;75.95;45049.06;5012166;28;20443;-72
2022/06/10 08:25:07;;;;;;;5.93;2.77;;;;;;;-143.84;75.58;45060.50;5011666;28;20487;-72
2022/06/10 08:27:34;;;;;;;4.90;2.33;;;;;;;-143.84;75.46;45094.78;5012603;28;20463;-73
2022/06/10 08:30:02;;;;;;;4.23;2.80;;;;;;;-143.84;76.29;45041.44;5011515;28;20440;-72
2022/06/10 08:32:29;;;;;;;4.43;2.77;;;;;;;-143.84;76.80;45062.41;5011606;28;20451;-72
2022/06/10 08:34:57;;;;;;;3.20;2.80;;;;;;;-143.84;76.15;45066.22;5011679;28;20443;-73
2022/06/10 08:37:24;;;;;;;3.00;2.80;;;;;;;-143.84;75.61;45018.59;5010761;28;20494;-73
2022/06/10 08:39:53;;;;;;;6.13;2.93;;;;;;;-143.84;76.88;45062.41;5011391;28;20479;-72
2022/06/10 08:42:33;;;;;;;3.97;3.20;;;;;;;-143.84;77.74;45054.78;5011210;28;20512;-73
2022/06/10 08:45:11;;;;;;;3.17;2.97;;;;;;;-143.84;77.50;45062.41;5011204;28;20443;-72
2022/06/10 08:47:55;;;;;;;3.63;2.33;;;;;;;-143.84;78.17;45070.00;5023847;28;20464;-72
2022/06/10 08:50:36;;;;;;;2.87;2.67;;;;;;;-143.84;78.57;45037.66;5031658;28;20458;-72
2022/06/10 08:53:22;;;;;;;6.80;2.73;;;;;;;-143.84;78.51;45052.88;5030687;28;20434;-72
2022/06/10 08:56:00;;;;;;;3.40;2.60;;;;;;;-143.84;78.45;45041.44;5031495;28;20971;-72
2022/06/10 08:58:33;;;;;;;3.70;2.60;;;;;;;-143.84;79.03;45028.13;5030641;28;20454;-72
2022/06/10 09:01:06;;;;;;;6.37;3.87;;;;;;;-143.84;79.85;45054.78;5030841;28;20984;-72
2022/06/10 09:03:37;;;;;;;7.37;3.10;;;;;;;-143.84;79.68;45049.06;5030965;28;20480;-72
2022/06/10 09:06:08;;;;;;;3.60;3.30;;;;;;;-143.84;80.39;45060.50;5031159;28;20445;-72
2022/06/10 09:08:39;;;;;;;3.10;2.90;;;;;;;-143.84;80.26;45064.31;5030489;28;20541;-72
2022/06/10 09:11:17;;;;;;;3.97;3.67;;;;;;;-143.84;80.82;45060.50;5031162;28;20434;-72
2022/06/10 09:13:51;;;;;;;4.30;3.53;;;;;;;-143.84;81.10;45043.34;5030654;28;20512;-72
2022/06/10 09:16:26;;;;;;;3.03;2.87;;;;;;;-143.84;81.40;45049.06;5030747;28;20908;-72
2022/06/10 09:19:03;;;;;;;3.80;3.50;;;;;;;-143.84;81.53;45066.22;5030304;28;20616;-72
2022/06/10 09:21:40;;;;;;;4.00;3.57;;;;;;;-143.84;81.53;45056.69;5030273;28;20971;-72
2022/06/10 09:24:14;;;;;;;3.57;3.37;;;;;;;-143.84;81.44;45071.91;5030793;28;20488;-71
2022/06/10 09:26:47;;;;;;;3.77;3.30;;;;;;;-143.84;81.54;45062.41;5030395;28;20987;-72
2022/06/10 09:29:16;;;;;;;3.83;3.53;;;;;;;-143.84;81.90;45090.97;5030465;28;20793;-72
2022/06/10 09:31:53;;;;;;;4.50;3.80;;;;;;;-143.84;81.94;45077.63;5030381;28;20978;-71
2022/06/10 09:34:33;;;;;;;3.80;3.40;;;;;;;-143.84;82.27;45083.34;5030824;28;20444;-72
2022/06/10 09:37:11;;;;;;;14.17;4.67;;;;;;;-143.84;82.63;45070.00;5029997;28;20477;-72
2022/06/10 09:42:57;;;;;;;14.23;5.20;;;;;;;-143.84;83.83;45060.50;5030531;28;20469;-71
2022/06/10 09:45:30;;;;;;;14.50;5.67;;;;;;;-143.84;84.72;45089.06;5030414;28;20953;-72
2022/06/10 09:48:13;;;;;;;14.67;4.50;;;;;;;-143.84;85.00;45066.22;5029323;28;20497;-71
2022/06/10 09:50:49;;;;;;;10.67;4.90;;;;;;;-143.84;85.09;45039.53;5028356;28;21125;-71
2022/06/10 09:53:32;;;;;;;5.57;5.13;;;;;;;-143.84;85.73;45070.00;5030744;28;20827;-71
2022/06/10 09:56:17;;;;;;;9.13;5.00;;;;;;;-143.84;86.89;45064.31;5030407;28;20423;-71
2022/06/10 09:59:09;;;;;;;10.80;6.10;;;;;;;-143.84;87.75;45066.22;5029497;28;20431;-71
2022/06/10 10:01:41;;;;;;;14.63;5.70;;;;;;;-143.84;86.99;45045.25;5029756;28;20979;-72
2022/06/10 10:04:37;;;;;;;12.13;5.30;;;;;;;-143.84;86.55;45058.59;5029774;28;20438;-72
2022/06/10 10:07:12;;;;;;;8.83;4.60;;;;;;;-143.84;88.18;45052.88;5016341;28;20534;-72
2022/06/10 10:09:53;;;;;;;5.63;4.63;;;;;;;-143.84;89.55;45041.44;5029783;28;20813;-72
2022/06/10 10:12:31;;;;;;;6.20;4.20;;;;;;;-143.84;90.49;45062.41;5029718;28;20457;-72
2022/06/10 10:15:08;;;;;;;6.67;5.00;;;;;;;-143.84;90.72;45081.44;5029040;28;20497;-72
2022/06/10 10:18:00;;;;;;;43.50;6.00;;;;;;;-143.84;92.12;45068.13;5028099;28;20465;-72
2022/06/10 10:20:38;;;;;;;5.93;4.67;;;;;;;-143.84;91.86;45060.50;5033187;28;20482;-72
2022/06/10 10:23:14;;;;;;;7.37;4.47;;;;;;;-143.84;91.00;45090.97;5030220;28;20447;-71
2022/06/10 10:25:44;;;;;;;4.40;4.00;;;;;;;-143.84;90.58;45045.25;5031785;28;20478;-71
2022/06/10 10:28:20;;;;;;;4.17;3.23;;;;;;;-143.84;88.22;45039.53;5030298;28;20466;-71
2022/06/10 10:30:58;;;;;;;6.03;3.93;;;;;;;-143.84;88.25;45056.69;5030082;28;20457;-71
2022/06/10 10:33:26;;;;;;;6.70;3.70;;;;;;;-143.84;88.04;45070.00;5030581;28;20439;-71
2022/06/10 10:35:56;;;;;;;8.57;4.50;;;;;;;-143.84;88.79;45075.72;5030090;28;21119;-71
2022/06/10 10:38:33;;;;;;;5.00;4.10;;;;;;;-143.84;89.08;45077.63;5028675;28;20447;-71
2022/06/10 10:41:01;;;;;;;7.23;3.70;;;;;;;-143.84;87.43;45060.50;5029340;28;20462;-73
2022/06/10 10:43:31;;;;;;;7.33;3.87;;;;;;;-143.84;88.16;45096.66;5028550;28;20446;-73
2022/06/10 10:46:04;;;;;;;5.93;4.07;;;;;;;-143.84;89.41;45073.81;5029129;28;20455;-72
2022/06/10 10:48:35;;;;;;;3.63;3.43;;;;;;;-143.84;88.20;45056.69;5029815;28;20457;-72
2022/06/10 10:51:15;;;;;;;3.53;3.23;;;;;;;-143.84;87.33;45052.88;5023678;28;21130;-72
2022/06/10 10:53:46;;;;;;;2.97;2.83;;;;;;;-143.84;86.44;45054.78;5032162;28;20545;-73
2022/06/10 10:56:16;;;;;;;4.33;3.70;;;;;;;-143.84;85.39;45073.81;5029552;28;20929;-76
2022/06/10 10:58:49;;;;;;;3.23;3.03;;;;;;;-143.84;85.11;45047.16;5032371;28;20435;-73
2022/06/10 11:01:47;;;;;;;8.73;3.53;;;;;;;-143.84;86.03;45064.31;5032323;28;20474;-73
2022/06/10 11:04:18;;;;;;;3.17;2.87;;;;;;;-143.84;85.06;45073.81;5033937;28;20435;-73
2022/06/10 11:06:45;;;;;;;8.27;3.47;;;;;;;-143.84;85.38;45066.22;5034251;28;20450;-73
2022/06/10 11:09:18;;;;;;;6.47;3.00;;;;;;;-143.84;85.85;45035.75;5033136;28;20434;-73
2022/06/10 11:11:46;;;;;;;3.37;3.07;;;;;;;-143.84;82.81;45035.75;5031670;28;20454;-74
2022/06/10 11:14:23;;;;;;;6.00;2.60;;;;;;;-143.84;82.39;45024.31;5032992;28;20932;-73
2022/06/10 11:17:04;;;;;;;2.40;2.20;;;;;;;-143.84;79.91;45045.25;5033489;28;20434;-73
2022/06/10 11:19:44;;;;;;;3.30;2.20;;;;;;;-143.84;79.15;45049.06;5033790;28;20529;-73
2022/06/10 11:22:20;;;;;;;3.03;2.77;;;;;;;-143.84;79.17;45037.66;5034016;28;20442;-73
2022/06/10 11:24:50;;;;;;;5.53;2.33;;;;;;;-143.84;79.80;45020.50;5033319;28;20568;-72
2022/06/10 11:27:28;;;;;;;8.00;3.37;;;;;;;-143.84;80.38;45050.97;5032768;28;20446;-73
2022/06/10 11:30:19;;;;;;;4.07;3.07;;;;;;;-143.84;79.96;45064.31;5034134;28;20557;-72
2022/06/10 11:32:56;;;;;;;8.47;3.10;;;;;;;-143.84;80.97;45030.03;5033894;28;20529;-73
2022/06/10 11:35:27;;;;;;;5.40;2.63;;;;;;;-143.84;79.52;45035.75;5033887;28;20509;-73
2022/06/10 11:37:58;;;;;;;4.93;2.80;;;;;;;-143.84;77.61;45049.06;5033685;28;20431;-73
2022/06/10 11:40:27;;;;;;;7.33;2.60;;;;;;;-143.84;77.52;45043.34;5033019;28;20563;-73
2022/06/10 11:43:01;;;;;;;2.67;2.50;;;;;;;-143.84;76.98;45024.31;5033618;28;20431;-73
2022/06/10 11:45:32;;;;;;;3.60;2.80;;;;;;;-143.84;75.75;45026.22;5033870;28;20521;-73
2022/06/10 11:48:06;;;;;;;3.20;2.67;;;;;;;-143.84;75.90;45037.66;5033427;28;20434;-73
2022/06/10 11:50:37;;;;;;;2.47;2.37;;;;;;;-143.84;75.75;45024.31;5034396;28;20434;-73
2022/06/10 11:53:12;;;;;;;2.53;2.07;;;;;;;-143.84;71.14;45014.78;5033977;28;20435;-72